Flight Track Log - Related Links

Times and Time Zones

All times are in EST time to prevent confusion due to time zone crossing. See the LAN933 flight status page for this flight to view local times or setup timezone preferences in your user account.

Time Position Orientation Groundspeed Altitude Reporting Facility
EST Latitude Longitude Course Direction KTS MPH feet Rate Location/Type
Mon 05:59:45 PM -32.8787 -69.9530 263° West 350 403 26,600  Level FlightAware ADS-B
Mon 06:00:26 PM -32.8811 -70.0254 268° West 340 391 25,400 -1,333 Descending FlightAware ADS-B
Mon 06:01:06 PM -32.8744 -70.0987 276° West 315 362 24,800 -1,268 Descending FlightAware ADS-B
Mon 06:01:37 PM -32.8696 -70.1530 276° West 301 346 23,900 -1,980 Descending FlightAware ADS-B
Mon 06:02:46 PM -32.8561 -70.2654 278° West 291 335 21,500 -1,842 Descending FlightAware ADS-B
Mon 06:03:18 PM -32.8422 -70.3126 289° West 287 330 20,800 -1,333 Descending FlightAware ADS-B
Mon 06:03:49 PM -32.8288 -70.3586 289° West 284 327 20,100 -1,377 Descending FlightAware ADS-B
Mon 06:04:19 PM -32.8165 -70.4023 288° West 281 323 19,400 -1,500 Descending FlightAware ADS-B
Mon 06:04:49 PM -32.8065 -70.4392 288° West 279 321 18,600 -1,500 Descending FlightAware ADS-B
Mon 06:05:19 PM -32.7931 -70.4872 288° West 277 319 17,900 -1,043 Descending FlightAware ADS-B
Mon 06:05:58 PM -32.7771 -70.5445 288° West 258 297 17,400 -870 Descending FlightAware ADS-B
Mon 06:06:28 PM -32.7658 -70.5844 288° West 249 287 16,900 -900 Descending FlightAware ADS-B
Mon 06:06:58 PM -32.7583 -70.6104 289° West 239 275 16,500 -1,029 Descending FlightAware ADS-B
Mon 06:07:38 PM -32.7406 -70.6722 289° West 237 273 15,700 -1,215 Descending FlightAware ADS-B
Mon 06:08:17 PM -32.7323 -70.7207 281° West 242 278 14,900 -1,114 Descending FlightAware ADS-B
Mon 06:08:48 PM -32.7395 -70.7609 258° West 238 274 14,400 -1,377 Descending FlightAware ADS-B
Mon 06:09:18 PM -32.7458 -70.7992 259° West 250 288 13,500 -1,672 Descending FlightAware ADS-B
Mon 06:09:49 PM -32.7516 -70.8407 261° West 253 291 12,700 -1,474 Descending FlightAware ADS-B
Mon 06:10:15 PM -32.7572 -70.8733 258° West 257 296 12,100 -1,371 Descending FlightAware ADS-B
Mon 06:10:24 PM -32.7660 -70.8880 235° Southwest 262 302 11,900 -1,565 Descending FlightAware ADS-B
Mon 06:10:38 PM -32.7796 -70.8975 210° Southwest 264 304 11,500 -1,500 Descending FlightAware ADS-B
Mon 06:10:48 PM -32.7922 -70.8997 188° South 265 305 11,300 -1,263 Descending FlightAware ADS-B
Mon 06:10:57 PM -32.8031 -70.8975 170° South 265 305 11,100 -1,231 Descending FlightAware ADS-B
Mon 06:11:27 PM -32.8306 -70.8827 156° South 262 302 10,500 -1,368 Descending FlightAware ADS-B
Mon 06:11:54 PM -32.8630 -70.8573 147° Southeast 261 300 9,800 -1,286 Descending FlightAware ADS-B
Mon 06:12:09 PM -32.8757 -70.8465 144° Southeast 260 299 9,600 -882 Descending FlightAware ADS-B
Mon 06:12:28 PM -32.8964 -70.8292 145° Southeast 256 295 9,300 -769 Descending FlightAware ADS-B
Mon 06:12:48 PM -32.9117 -70.8166 145° Southeast 250 288 9,100 -800 Descending FlightAware ADS-B
Mon 06:12:58 PM -32.9271 -70.8094 159° South 247 284 8,900 -1,400 Descending FlightAware ADS-B
Mon 06:13:18 PM -32.9499 -70.8083 178° South 247 284 8,400 -1,317 Descending FlightAware ADS-B
Mon 06:13:39 PM -32.9739 -70.8076 179° South 250 288 8,000 -1,050 Descending FlightAware ADS-B
Mon 06:13:58 PM -32.9959 -70.8065 178° South 247 284 7,700 -1,263 Descending FlightAware ADS-B
Mon 06:14:17 PM -33.0180 -70.8055 178° South 246 283 7,200 -1,024 Descending FlightAware ADS-B
Mon 06:14:39 PM -33.0426 -70.8042 178° South 238 274 7,000 -286 Descending FlightAware ADS-B
Mon 06:14:59 PM -33.0627 -70.8033 178° South 223 257 7,000 -615 Level FlightAware ADS-B
Mon 06:15:18 PM -33.0837 -70.8027 179° South 222 255 6,600 -1,650 Descending FlightAware ADS-B
Mon 06:15:39 PM -33.1055 -70.8013 177° South 238 274 5,900 -1,756 Descending FlightAware ADS-B
Mon 06:15:59 PM -33.1276 -70.7999 177° South 238 274 5,400 -1,200 Descending FlightAware ADS-B
Mon 06:16:19 PM -33.1502 -70.7988 178° South 227 261 5,100 -615 Descending FlightAware ADS-B
Mon 06:16:38 PM -33.1692 -70.7979 178° South 212 244 5,000 -154 Descending FlightAware ADS-B
Mon 06:16:58 PM -33.1882 -70.7969 177° South 202 232 5,000 -293 Level FlightAware ADS-B
Mon 06:17:19 PM -33.2073 -70.7958 177° South 190 219 4,800 -750 Descending FlightAware ADS-B
Mon 06:17:38 PM -33.2245 -70.7949 177° South 185 213 4,500 -1,077 Descending FlightAware ADS-B
Mon 06:17:58 PM -33.2418 -70.7939 177° South 187 215 4,100 -1,050 Descending FlightAware ADS-B
Mon 06:18:18 PM -33.2590 -70.7930 177° South 181 208 3,800 -878 Descending FlightAware ADS-B
Mon 06:18:39 PM -33.2747 -70.7922 177° South 166 191 3,500 -789 Descending FlightAware ADS-B
Mon 06:18:56 PM -33.2856 -70.7916 177° South 156 180 3,300 -750 Descending FlightAware ADS-B
Mon 06:19:19 PM -33.3042 -70.7906 177° South 142 163 3,000 -878 Descending FlightAware ADS-B
Mon 06:19:37 PM -33.3158 -70.7900 178° South 136 157 2,700 -882 Descending FlightAware ADS-B
Mon 06:19:53 PM -33.3253 -70.7895 177° South 131 151 2,500 -615 Descending FlightAware ADS-B
Mon 06:20:16 PM -33.3378 -70.7888 177° South 132 152 2,300 -682 Descending FlightAware ADS-B
Mon 06:20:37 PM -33.3507 -70.7881 177° South 133 153 2,000 -857 Descending FlightAware ADS-B
Mon 06:23:00 PM -33.3833 -70.7667 244° Southwest  Level FlightAware Approximate
Mon 06:24:00 PM -33.3930 -70.7858 244° Southwest  Level Estimated
Mon 06:25:00 PM -33.3930 -70.7858 244° Southwest  Level Estimated
Mon 06:26:00 PM -33.3930 -70.7858 244° Southwest  Level Estimated
Mon 06:27:00 PM -33.3930 -70.7858 244° Southwest  Level Estimated
Mon 06:28:00 PM -33.3930 -70.7858 244° Southwest  Level Estimated
Mon 06:29:00 PM -33.3930 -70.7858 244° Southwest  Level Estimated
Mon 06:30:00 PM -33.3930 -70.7858 244° Southwest  Level Estimated

Login

Don't have an account? Register now (free) for customized features, flight alerts, and more!